createdAt,value
2018-10-18T00:02:14.657Z,2.77
2018-10-18T00:04:43.334Z,2.83
2018-10-18T00:07:12.080Z,2.70
2018-10-18T00:09:40.359Z,2.60
2018-10-18T00:12:08.993Z,2.80
2018-10-18T00:14:37.652Z,2.60
2018-10-18T00:17:10.636Z,2.53
2018-10-18T00:19:38.887Z,2.87
2018-10-18T00:22:07.214Z,2.80
2018-10-18T00:24:35.687Z,2.97
2018-10-18T00:27:04.072Z,2.67
2018-10-18T00:29:33.553Z,2.83
2018-10-18T00:32:01.893Z,2.90
2018-10-18T00:34:32.625Z,3.13
2018-10-18T00:37:01.296Z,3.00
2018-10-18T00:39:29.639Z,2.80
2018-10-18T00:41:57.912Z,2.93
2018-10-18T00:44:26.238Z,3.10
2018-10-18T00:46:54.514Z,2.83
2018-10-18T00:49:22.814Z,2.90
2018-10-18T00:51:51.581Z,2.70
2018-10-18T00:54:19.892Z,2.90
2018-10-18T00:56:48.220Z,3.00
2018-10-18T00:59:16.495Z,2.83
2018-10-18T01:01:44.828Z,3.00
2018-10-18T01:04:13.237Z,2.83
2018-10-18T01:06:41.648Z,3.10
2018-10-18T01:09:10.992Z,2.80
2018-10-18T01:11:39.736Z,2.83
2018-10-18T01:14:09.049Z,2.60
2018-10-18T01:16:37.323Z,2.70
2018-10-18T01:19:05.591Z,2.60
2018-10-18T01:21:33.851Z,2.60
2018-10-18T01:24:02.693Z,2.50
2018-10-18T01:26:31.027Z,2.10
2018-10-18T01:28:59.363Z,2.30
2018-10-18T01:31:27.975Z,2.10
2018-10-18T01:33:56.342Z,2.10
2018-10-18T01:36:24.917Z,2.80
2018-10-18T01:38:53.189Z,2.70
2018-10-18T01:41:21.792Z,2.77
2018-10-18T01:43:50.551Z,2.97
2018-10-18T01:46:18.811Z,2.83
2018-10-18T01:48:47.076Z,2.57
2018-10-18T01:51:15.595Z,2.50
2018-10-18T01:53:44.266Z,2.70
2018-10-18T01:56:12.846Z,2.87
2018-10-18T01:58:41.070Z,2.67
2018-10-18T02:01:09.736Z,2.53
2018-10-18T02:03:38.422Z,2.80
2018-10-18T02:06:07.482Z,3.23
2018-10-18T02:08:35.721Z,2.97
2018-10-18T02:11:04.307Z,2.70
2018-10-18T02:13:32.577Z,2.63
2018-10-18T02:16:00.858Z,2.80
2018-10-18T02:18:29.319Z,2.97
2018-10-18T02:20:57.651Z,3.27
2018-10-18T02:23:25.976Z,3.17
2018-10-18T02:25:54.650Z,2.87
2018-10-18T02:28:23.217Z,3.53
2018-10-18T02:30:51.930Z,3.87
2018-10-18T02:33:20.639Z,3.90
2018-10-18T02:35:49.195Z,3.80
2018-10-18T02:38:17.903Z,3.77
2018-10-18T02:40:46.182Z,4.47
2018-10-18T02:43:14.416Z,4.30
2018-10-18T02:45:42.931Z,4.33
2018-10-18T02:48:11.565Z,4.90
2018-10-18T02:50:40.315Z,4.80
2018-10-18T02:53:08.587Z,4.27
2018-10-18T02:55:36.855Z,4.60
2018-10-18T02:58:05.147Z,4.47
2018-10-18T03:00:33.838Z,4.00
2018-10-18T03:03:02.456Z,3.90
2018-10-18T03:05:30.719Z,3.40
2018-10-18T03:07:59.343Z,2.93
2018-10-18T03:10:28.168Z,3.20
2018-10-18T03:12:56.775Z,3.37
2018-10-18T03:15:25.537Z,3.30
2018-10-18T03:17:53.809Z,3.70
2018-10-18T03:20:22.316Z,4.30
2018-10-18T03:22:50.635Z,4.63
2018-10-18T03:25:19.045Z,4.80
2018-10-18T03:27:47.759Z,4.40
2018-10-18T03:30:16.071Z,5.03
2018-10-18T03:32:45.706Z,5.10
2018-10-18T03:35:14.008Z,4.97
2018-10-18T03:37:42.563Z,4.77
2018-10-18T03:40:11.142Z,4.87
2018-10-18T03:42:39.779Z,4.53
2018-10-18T03:45:08.297Z,4.87
2018-10-18T03:47:37.064Z,4.00
2018-10-18T03:50:05.876Z,4.03
2018-10-18T03:52:34.450Z,3.80
2018-10-18T03:55:02.747Z,3.33
2018-10-18T03:57:31.074Z,3.83
2018-10-18T03:59:59.374Z,3.73
2018-10-18T04:02:27.651Z,4.07
2018-10-18T04:04:55.900Z,3.70
2018-10-18T04:07:24.635Z,3.80
2018-10-18T04:09:53.186Z,4.30
2018-10-18T04:12:21.567Z,4.10
2018-10-18T04:14:49.841Z,4.10
2018-10-18T04:17:18.298Z,3.97
2018-10-18T04:19:46.592Z,4.03
2018-10-18T04:22:15.119Z,4.07
2018-10-18T04:24:43.799Z,4.40
2018-10-18T04:27:12.490Z,4.27
2018-10-18T04:29:41.318Z,4.50
2018-10-18T04:32:10.013Z,4.53
2018-10-18T04:34:38.764Z,4.10
2018-10-18T04:37:07.028Z,4.53
2018-10-18T04:39:35.730Z,4.27
2018-10-18T04:42:04.209Z,4.43
2018-10-18T04:44:40.939Z,4.40
2018-10-18T04:47:09.285Z,4.03
2018-10-18T04:49:37.976Z,4.30
2018-10-18T04:52:06.467Z,4.10
2018-10-18T04:54:35.503Z,4.10
2018-10-18T04:57:03.867Z,4.30
2018-10-18T04:59:33.718Z,4.20
2018-10-18T05:02:02.340Z,4.23
2018-10-18T05:04:32.042Z,3.90
2018-10-18T05:07:00.592Z,3.60
2018-10-18T05:09:28.835Z,3.53
2018-10-18T05:11:57.152Z,3.63
2018-10-18T05:14:30.876Z,4.03
2018-10-18T05:16:59.384Z,3.77
2018-10-18T05:19:28.080Z,3.60
2018-10-18T05:21:56.348Z,3.60
2018-10-18T05:24:24.638Z,4.10
2018-10-18T05:26:52.951Z,3.77
2018-10-18T05:29:21.206Z,3.70
2018-10-18T05:31:49.575Z,3.90
2018-10-18T05:34:17.876Z,4.17
2018-10-18T05:36:46.127Z,4.20
2018-10-18T05:39:14.687Z,3.50
2018-10-18T05:41:42.971Z,4.10
2018-10-18T05:44:12.623Z,4.07
2018-10-18T05:46:41.323Z,3.90
2018-10-18T05:49:09.678Z,3.90
2018-10-18T05:51:37.916Z,3.80
2018-10-18T05:54:06.442Z,4.10
2018-10-18T05:56:35.245Z,3.97
2018-10-18T05:59:03.991Z,4.17
2018-10-18T06:01:32.607Z,3.80
2018-10-18T06:04:01.266Z,4.00
2018-10-18T06:06:29.796Z,4.37
2018-10-18T06:08:58.076Z,3.60
2018-10-18T06:11:29.714Z,4.10
2018-10-18T06:13:58.487Z,3.90
2018-10-18T06:16:26.939Z,3.57
2018-10-18T06:18:55.360Z,3.90
2018-10-18T06:21:24.343Z,3.90
2018-10-18T06:23:52.661Z,3.77
2018-10-18T06:26:20.926Z,4.03
2018-10-18T06:28:50.237Z,3.90
2018-10-18T06:31:18.560Z,4.20
2018-10-18T06:33:46.923Z,4.23
2018-10-18T06:36:15.282Z,4.03
2018-10-18T06:38:43.754Z,4.10
2018-10-18T06:41:12.370Z,4.10
2018-10-18T06:43:41.431Z,4.17
2018-10-18T06:46:11.469Z,4.10
2018-10-18T06:48:40.082Z,4.50
2018-10-18T06:51:09.058Z,4.40
2018-10-18T06:53:37.672Z,4.67
2018-10-18T06:56:06.436Z,4.33
2018-10-18T06:58:34.984Z,4.27
2018-10-18T07:01:03.747Z,4.53
2018-10-18T07:03:32.067Z,4.27
2018-10-18T07:06:00.594Z,4.30
2018-10-18T07:08:28.958Z,4.40
2018-10-18T07:10:57.319Z,4.40
2018-10-18T07:13:25.607Z,4.50
2018-10-18T07:15:54.168Z,4.57
2018-10-18T07:18:22.843Z,4.30
2018-10-18T07:20:51.487Z,4.30
2018-10-18T07:23:19.947Z,4.90
2018-10-18T07:25:48.517Z,4.77
2018-10-18T07:28:16.851Z,4.83
2018-10-18T07:30:45.431Z,4.90
2018-10-18T07:33:13.739Z,4.80
2018-10-18T07:35:42.083Z,4.70
2018-10-18T07:38:10.387Z,4.83
2018-10-18T07:40:38.982Z,4.63
2018-10-18T07:43:07.379Z,4.50
2018-10-18T07:45:36.172Z,4.80
2018-10-18T07:48:05.181Z,4.77
2018-10-18T07:50:33.782Z,4.93
2018-10-18T07:53:02.540Z,4.77
2018-10-18T07:55:31.223Z,4.77
2018-10-18T07:57:59.795Z,4.63
2018-10-18T08:00:28.740Z,4.87
2018-10-18T08:02:56.987Z,4.27
2018-10-18T08:05:25.241Z,4.30
2018-10-18T08:07:53.495Z,4.47
2018-10-18T08:10:21.813Z,4.23
2018-10-18T08:12:50.061Z,4.27
2018-10-18T08:15:18.793Z,4.67
2018-10-18T08:17:47.060Z,4.13
2018-10-18T08:20:15.659Z,4.50
2018-10-18T08:22:44.366Z,4.50
2018-10-18T08:25:13.124Z,4.43
2018-10-18T08:27:41.444Z,4.80
2018-10-18T08:30:11.323Z,4.77
2018-10-18T08:32:40.012Z,4.27
2018-10-18T08:35:09.116Z,4.43
2018-10-18T08:37:37.901Z,4.10
2018-10-18T08:40:06.953Z,4.10
2018-10-18T08:42:35.387Z,4.20
2018-10-18T08:45:04.171Z,4.40
2018-10-18T08:47:32.417Z,4.20
2018-10-18T08:50:00.848Z,4.00
2018-10-18T08:52:29.413Z,4.47
2018-10-18T08:54:57.736Z,4.03
2018-10-18T08:57:25.987Z,4.10
2018-10-18T08:59:54.679Z,4.10
2018-10-18T09:02:22.975Z,4.07
2018-10-18T09:04:51.635Z,4.07
2018-10-18T09:07:20.333Z,4.13
2018-10-18T09:09:49.011Z,3.97
2018-10-18T09:12:17.647Z,4.20
2018-10-18T09:15:07.371Z,3.80
2018-10-18T09:17:35.931Z,4.50
2018-10-18T09:20:04.704Z,3.80
2018-10-18T09:22:32.976Z,3.63
2018-10-18T09:25:01.421Z,4.10
2018-10-18T09:27:29.739Z,4.03
2018-10-18T09:29:58.294Z,3.67
2018-10-18T09:32:26.610Z,4.30
2018-10-18T09:34:55.063Z,3.90
2018-10-18T09:37:23.432Z,3.50
2018-10-18T09:39:51.912Z,3.80
2018-10-18T09:42:20.599Z,3.80
2018-10-18T09:44:49.173Z,4.08
2018-10-18T09:47:18.216Z,3.72
2018-10-18T09:49:46.493Z,3.72
2018-10-18T09:52:14.807Z,3.67
2018-10-18T09:54:43.511Z,3.40
2018-10-18T09:57:11.823Z,3.50
2018-10-18T09:59:40.303Z,3.58
2018-10-18T10:02:14.436Z,3.95
2018-10-18T10:04:42.799Z,3.87
2018-10-18T10:07:11.187Z,3.47
2018-10-18T10:09:40.023Z,3.60
2018-10-18T10:12:08.519Z,3.70
2018-10-18T10:14:56.067Z,3.47
2018-10-18T10:17:24.547Z,3.30
2018-10-18T10:19:52.794Z,3.20
2018-10-18T10:22:21.416Z,3.58
2018-10-18T10:24:50.028Z,3.85
2018-10-18T10:27:18.886Z,3.17
2018-10-18T10:29:47.583Z,3.15
2018-10-18T10:32:16.032Z,3.08
2018-10-18T10:34:44.771Z,3.22
2018-10-18T10:37:13.153Z,3.08
2018-10-18T10:39:41.736Z,3.30
2018-10-18T10:42:10.448Z,3.27
2018-10-18T10:44:39.137Z,3.20
2018-10-18T10:47:07.526Z,3.25
2018-10-18T10:49:36.455Z,3.45
2018-10-18T10:52:05.145Z,3.30
2018-10-18T10:54:34.970Z,3.00
2018-10-18T10:57:03.316Z,3.20
2018-10-18T10:59:33.087Z,3.37
2018-10-18T11:02:01.832Z,3.40
2018-10-18T11:04:30.443Z,3.10
2018-10-18T11:06:59.039Z,3.30
2018-10-18T11:09:27.583Z,3.20
2018-10-18T11:11:56.203Z,3.22
2018-10-18T11:17:26.523Z,3.22
2018-10-18T11:19:55.070Z,2.98
2018-10-18T11:22:23.684Z,3.20
2018-10-18T11:24:52.346Z,3.22
2018-10-18T11:27:21.661Z,3.12
2018-10-18T11:29:49.869Z,2.70
2018-10-18T11:32:18.164Z,3.10
2018-10-18T11:34:46.480Z,3.25
2018-10-18T11:37:15.341Z,3.17
2018-10-18T11:39:43.643Z,3.30
2018-10-18T11:42:12.280Z,3.17
2018-10-18T11:44:40.958Z,2.70
2018-10-18T11:47:10.905Z,3.47
2018-10-18T11:49:40.193Z,2.90
2018-10-18T11:52:08.973Z,3.00
2018-10-18T11:54:37.211Z,3.12
2018-10-18T11:57:05.796Z,3.05
2018-10-18T11:59:35.548Z,3.12
2018-10-18T12:02:04.344Z,2.80
2018-10-18T12:04:34.131Z,3.02
2018-10-18T12:07:02.464Z,3.10
2018-10-18T12:09:30.731Z,2.90
2018-10-18T12:11:59.016Z,2.60
2018-10-18T12:14:51.244Z,3.12
2018-10-18T12:17:19.958Z,3.02
2018-10-18T12:19:48.656Z,3.25
2018-10-18T12:22:17.356Z,2.83
2018-10-18T12:24:46.061Z,2.65
2018-10-18T12:27:15.553Z,3.30
2018-10-18T12:29:43.898Z,2.90
2018-10-18T12:32:12.230Z,3.40
2018-10-18T12:34:40.883Z,3.50
2018-10-18T12:37:09.168Z,3.08
2018-10-18T12:39:37.517Z,2.92
2018-10-18T12:42:06.341Z,3.20
2018-10-18T12:44:39.223Z,3.22
2018-10-18T12:47:09.757Z,2.92
2018-10-18T12:49:39.228Z,2.98
2018-10-18T12:52:08.871Z,2.92
2018-10-18T12:54:37.804Z,3.17
2018-10-18T12:57:07.574Z,2.90
2018-10-18T12:59:35.981Z,3.08
2018-10-18T13:02:04.653Z,3.40
2018-10-18T13:04:34.453Z,3.00
2018-10-18T13:07:03.607Z,2.90
2018-10-18T13:09:33.461Z,3.20
2018-10-18T13:12:02.204Z,3.22
2018-10-18T13:14:59.682Z,3.10
2018-10-18T13:17:28.414Z,2.87
2018-10-18T13:19:56.726Z,3.05
2018-10-18T13:22:25.511Z,3.30
2018-10-18T13:24:53.810Z,2.92
2018-10-18T13:27:22.053Z,3.40
2018-10-18T13:29:50.646Z,2.72
2018-10-18T13:32:19.443Z,3.10
2018-10-18T13:34:48.020Z,3.25
2018-10-18T13:37:17.119Z,3.30
2018-10-18T13:39:45.427Z,3.42
2018-10-18T13:42:13.991Z,3.87
2018-10-18T13:44:42.575Z,3.42
2018-10-18T13:47:10.855Z,3.45
2018-10-18T13:49:39.186Z,3.37
2018-10-18T13:52:07.736Z,3.47
2018-10-18T13:54:36.497Z,3.45
2018-10-18T13:57:05.504Z,3.00
2018-10-18T13:59:45.257Z,3.47
2018-10-18T14:02:14.003Z,3.15
2018-10-18T14:04:42.312Z,3.72
2018-10-18T14:07:10.766Z,3.50
2018-10-18T14:09:39.306Z,4.05
2018-10-18T14:12:07.619Z,3.83
2018-10-18T14:17:53.871Z,3.77
2018-10-18T14:20:22.502Z,4.42
2018-10-18T14:22:50.879Z,3.83
2018-10-18T14:25:19.639Z,4.20
2018-10-18T14:27:48.222Z,4.15
2018-10-18T14:30:17.016Z,4.05
2018-10-18T14:32:45.588Z,4.40
2018-10-18T14:35:14.377Z,4.12
2018-10-18T14:37:42.867Z,4.42
2018-10-18T14:40:11.916Z,4.50
2018-10-18T14:42:40.215Z,4.78
2018-10-18T14:45:08.936Z,4.10
2018-10-18T14:47:37.731Z,4.80
2018-10-18T14:50:08.085Z,4.42
2018-10-18T14:52:36.323Z,4.20
2018-10-18T14:55:05.058Z,4.50
2018-10-18T14:57:33.726Z,4.85
2018-10-18T15:00:02.511Z,4.87
2018-10-18T15:02:30.806Z,4.45
2018-10-18T15:04:59.122Z,5.12
2018-10-18T15:07:27.415Z,4.80
2018-10-18T15:09:55.679Z,4.87
2018-10-18T15:12:24.174Z,5.85
2018-10-18T15:15:23.929Z,5.05
2018-10-18T15:17:52.714Z,5.17
2018-10-18T15:20:21.415Z,5.22
2018-10-18T15:22:49.971Z,5.55
2018-10-18T15:25:18.647Z,5.50
2018-10-18T15:27:47.492Z,4.87
2018-10-18T15:30:15.744Z,5.55
2018-10-18T15:32:44.028Z,5.62
2018-10-18T15:35:12.582Z,5.70
2018-10-18T15:37:41.227Z,6.00
2018-10-18T15:40:09.880Z,6.40
2018-10-18T15:42:38.675Z,6.60
2018-10-18T15:45:07.465Z,6.22
2018-10-18T15:47:35.723Z,5.83
2018-10-18T15:50:04.866Z,6.17
2018-10-18T15:52:33.130Z,6.28
2018-10-18T15:55:01.452Z,6.83
2018-10-18T15:57:29.748Z,6.55
2018-10-18T15:59:58.108Z,7.30
2018-10-18T16:02:26.865Z,6.80
2018-10-18T16:04:55.240Z,7.20
2018-10-18T16:07:23.519Z,6.40
2018-10-18T16:09:51.768Z,7.60
2018-10-18T16:12:20.036Z,6.80
2018-10-18T16:15:00.710Z,6.90
2018-10-18T16:17:29.294Z,6.70
2018-10-18T16:19:58.105Z,7.03
2018-10-18T16:22:26.374Z,7.65
2018-10-18T16:24:54.904Z,6.80
2018-10-18T16:27:23.162Z,6.67
2018-10-18T16:29:51.424Z,6.40
2018-10-18T16:32:19.858Z,7.00
2018-10-18T16:34:48.055Z,6.57
2018-10-18T16:37:17.129Z,6.53
2018-10-18T16:39:46.597Z,7.20
2018-10-18T16:42:15.271Z,6.60
2018-10-18T16:44:43.595Z,6.33
2018-10-18T16:47:11.888Z,6.50
2018-10-18T16:49:40.635Z,7.40
2018-10-18T16:52:09.012Z,6.40
2018-10-18T16:54:37.676Z,7.10
2018-10-18T16:57:06.424Z,6.50
2018-10-18T16:59:35.283Z,6.03
2018-10-18T17:02:03.682Z,6.73
2018-10-18T17:04:32.070Z,5.90
2018-10-18T17:07:00.343Z,6.07
2018-10-18T17:09:28.631Z,7.30
2018-10-18T17:11:56.926Z,6.60
2018-10-18T17:14:47.685Z,7.33
2018-10-18T17:17:16.747Z,7.20
2018-10-18T17:19:45.076Z,7.00
2018-10-18T17:22:13.382Z,7.00
2018-10-18T17:24:41.627Z,7.20
2018-10-18T17:27:10.056Z,8.00
2018-10-18T17:29:38.288Z,7.47
2018-10-18T17:32:06.614Z,7.57
2018-10-18T17:34:36.711Z,7.03
2018-10-18T17:37:05.240Z,6.87
2018-10-18T17:39:35.314Z,6.43
2018-10-18T17:42:03.664Z,6.70
2018-10-18T17:44:31.962Z,6.50
2018-10-18T17:47:00.383Z,6.50
2018-10-18T17:49:28.687Z,7.07
2018-10-18T17:51:56.982Z,6.50
2018-10-18T17:54:25.299Z,6.30
2018-10-18T17:56:53.716Z,6.73
2018-10-18T17:59:22.343Z,6.00
2018-10-18T18:01:50.783Z,6.33
2018-10-18T18:04:19.064Z,6.77
2018-10-18T18:06:47.441Z,6.57
2018-10-18T18:09:15.688Z,5.60
2018-10-18T18:11:44.026Z,6.37
2018-10-18T18:14:12.323Z,5.60
2018-10-18T18:16:58.046Z,5.50
2018-10-18T18:19:26.324Z,6.50
2018-10-18T18:21:55.014Z,5.77
2018-10-18T18:24:23.329Z,5.73
2018-10-18T18:26:51.587Z,5.57
2018-10-18T18:29:19.902Z,6.17
2018-10-18T18:31:48.587Z,6.87
2018-10-18T18:34:16.867Z,6.73
2018-10-18T18:36:45.140Z,6.23
2018-10-18T18:39:13.450Z,6.83
2018-10-18T18:41:41.745Z,6.50
2018-10-18T18:44:10.043Z,6.37
2018-10-18T18:46:38.386Z,6.90
2018-10-18T18:49:06.910Z,7.37
2018-10-18T18:51:36.138Z,6.97
2018-10-18T18:54:04.451Z,6.97
2018-10-18T18:56:32.769Z,6.77
2018-10-18T18:59:01.084Z,6.93
2018-10-18T19:01:29.366Z,7.50
2018-10-18T19:03:57.606Z,7.73
2018-10-18T19:06:25.971Z,7.73
2018-10-18T19:08:58.346Z,7.30
2018-10-18T19:11:27.052Z,8.50
2018-10-18T19:13:55.967Z,8.33
2018-10-18T19:17:08.277Z,8.13
2018-10-18T19:19:38.246Z,8.03
2018-10-18T19:22:07.003Z,8.07
2018-10-18T19:24:36.881Z,7.93
2018-10-18T19:27:05.195Z,7.40
2018-10-18T19:29:35.471Z,7.97
2018-10-18T19:32:03.825Z,7.90
2018-10-18T19:34:32.107Z,8.57
2018-10-18T19:37:00.415Z,7.63
2018-10-18T19:39:28.659Z,8.30
2018-10-18T19:41:56.923Z,8.30
2018-10-18T19:44:25.275Z,8.10
2018-10-18T19:46:53.547Z,7.67
2018-10-18T19:49:21.880Z,7.50
2018-10-18T19:51:50.174Z,8.17
2018-10-18T19:54:18.563Z,7.03
2018-10-18T19:56:46.812Z,8.00
2018-10-18T19:59:15.143Z,8.93
2018-10-18T20:01:43.423Z,9.00
2018-10-18T20:04:11.773Z,8.80
2018-10-18T20:06:40.087Z,9.30
2018-10-18T20:09:10.159Z,8.93
2018-10-18T20:11:38.451Z,10.10
2018-10-18T20:14:07.167Z,9.27
2018-10-18T20:16:59.820Z,10.90
2018-10-18T20:19:28.466Z,10.23
2018-10-18T20:21:56.843Z,12.10
2018-10-18T20:24:25.262Z,12.87
2018-10-18T20:30:17.602Z,11.80
2018-10-18T20:32:45.920Z,9.73
2018-10-18T20:35:14.191Z,9.70
2018-10-18T20:37:42.504Z,10.93
2018-10-18T20:40:13.048Z,10.50
2018-10-18T20:42:41.564Z,10.07
2018-10-18T20:45:40.625Z,9.70
2018-10-18T20:48:09.313Z,10.67
2018-10-18T20:50:37.485Z,9.33
2018-10-18T20:53:05.927Z,10.07
2018-10-18T20:55:34.227Z,10.83
2018-10-18T20:58:02.551Z,11.67
2018-10-18T21:00:31.191Z,9.53
2018-10-18T21:02:59.622Z,9.60
2018-10-18T21:05:28.129Z,9.80
2018-10-18T21:07:56.571Z,9.53
2018-10-18T21:10:24.972Z,8.87
2018-10-18T21:12:53.286Z,9.57
2018-10-18T21:18:39.284Z,9.67
2018-10-18T21:21:07.998Z,10.30
2018-10-18T21:23:36.263Z,11.27
2018-10-18T21:26:04.634Z,10.63
2018-10-18T21:28:32.896Z,11.80
2018-10-18T21:31:01.123Z,12.30
2018-10-18T21:33:29.654Z,11.30
2018-10-18T21:35:57.947Z,10.53
2018-10-18T21:38:26.213Z,11.17
2018-10-18T21:40:54.650Z,10.33
2018-10-18T21:43:22.936Z,9.63
2018-10-18T21:45:55.731Z,9.93
2018-10-18T21:48:24.592Z,9.83
2018-10-18T21:50:52.956Z,9.83
2018-10-18T21:53:21.696Z,10.30
2018-10-18T21:55:49.996Z,10.37
2018-10-18T21:58:18.394Z,9.77
2018-10-18T22:00:46.636Z,10.03
2018-10-18T22:03:15.063Z,9.87
2018-10-18T22:05:43.479Z,10.43
2018-10-18T22:08:12.112Z,10.90
2018-10-18T22:10:40.901Z,11.60
2018-10-18T22:13:09.569Z,10.60
2018-10-18T22:15:38.351Z,11.33
2018-10-18T22:18:06.962Z,10.73
2018-10-18T22:20:35.527Z,12.20
2018-10-18T22:23:04.475Z,12.87
2018-10-18T22:25:32.741Z,12.47
2018-10-18T22:28:01.067Z,12.47
2018-10-18T22:30:29.723Z,12.17
2018-10-18T22:32:58.146Z,10.77
2018-10-18T22:35:26.859Z,10.90
2018-10-18T22:37:55.451Z,11.57
2018-10-18T22:40:23.815Z,12.07
2018-10-18T22:42:52.089Z,11.43
2018-10-18T22:45:20.492Z,12.70
2018-10-18T22:47:49.801Z,11.13
2018-10-18T22:50:18.953Z,11.13
2018-10-18T22:52:47.527Z,11.70
2018-10-18T22:55:15.810Z,10.80
2018-10-18T22:57:44.256Z,10.97
2018-10-18T23:00:12.601Z,11.90
2018-10-18T23:02:40.900Z,13.37
2018-10-18T23:05:09.259Z,12.80
2018-10-18T23:07:37.811Z,11.50
2018-10-18T23:10:06.677Z,11.70
2018-10-18T23:12:34.948Z,11.40
2018-10-18T23:15:03.657Z,11.00
2018-10-18T23:17:32.415Z,10.77
2018-10-18T23:20:01.076Z,12.90
2018-10-18T23:22:29.351Z,12.50
2018-10-18T23:24:57.647Z,12.07
2018-10-18T23:27:29.566Z,12.47
2018-10-18T23:29:57.880Z,11.17
2018-10-18T23:32:26.131Z,11.20
2018-10-18T23:34:54.464Z,12.07
2018-10-18T23:37:22.912Z,11.67
2018-10-18T23:39:51.727Z,12.80
2018-10-18T23:42:20.246Z,12.43
2018-10-18T23:44:48.909Z,12.27
2018-10-18T23:47:18.805Z,11.97
2018-10-18T23:49:47.533Z,11.67
2018-10-18T23:52:15.781Z,10.87
2018-10-18T23:54:44.566Z,11.07
2018-10-18T23:57:13.309Z,11.10
2018-10-18T23:59:41.563Z,11.10
